Аэропорт: Витязево. Анапа

ICAO: URKA

METAR:
2020-10-23 10:00:00
URKA 231000Z 25005MPS 9999 BKN032CB 19/12 Q1023 R22/010065 NOSIG RMK QFE762/1016
METAR:
2020-10-23 07:56:00
TAF URKA 230756Z 2309/2409 22003G08MPS 9999 SCT030